createdAt,value
2022-12-31T00:02:42.649Z,99682.19
2022-12-31T00:05:44.449Z,99680.63
2022-12-31T00:08:46.923Z,99690.81
2022-12-31T00:11:48.682Z,99683.31
2022-12-31T00:14:50.531Z,99680.72
2022-12-31T00:17:52.341Z,99683.03
2022-12-31T00:20:54.059Z,99689.69
2022-12-31T00:23:56.528Z,99692.69
2022-12-31T00:26:58.210Z,99696.63
2022-12-31T00:30:04.432Z,99685.78
2022-12-31T00:33:07.751Z,99679.81
2022-12-31T00:36:18.069Z,99685.06
2022-12-31T00:39:19.901Z,99685.88
2022-12-31T00:42:21.760Z,99681.41
2022-12-31T00:45:23.436Z,99695.16
2022-12-31T00:48:25.244Z,99702.81
2022-12-31T00:51:29.907Z,99702.81
2022-12-31T00:54:31.740Z,99703.09
2022-12-31T00:57:33.396Z,99691.56
2022-12-31T01:00:36.646Z,99696.75
2022-12-31T01:03:38.899Z,99691.72
2022-12-31T01:06:41.913Z,99696.63
2022-12-31T01:09:43.716Z,99695.28
2022-12-31T01:12:45.427Z,99706.41
2022-12-31T01:15:47.345Z,99710.50
2022-12-31T01:18:50.221Z,99723.28
2022-12-31T01:21:52.764Z,99723.69
2022-12-31T01:24:54.670Z,99711.88
2022-12-31T01:27:56.482Z,99721.13
2022-12-31T01:30:58.707Z,99714.19
2022-12-31T01:34:00.880Z,99714.31
2022-12-31T01:37:02.714Z,99716.06
2022-12-31T01:40:04.812Z,99714.44
2022-12-31T01:43:19.007Z,99716.06
2022-12-31T01:46:44.017Z,99721.94
2022-12-31T01:49:57.532Z,99719.47
2022-12-31T01:53:07.973Z,99728.47
2022-12-31T01:56:10.283Z,99729.00
2022-12-31T01:59:15.847Z,99716.66
2022-12-31T02:02:18.101Z,99717.47
2022-12-31T02:05:27.392Z,99706.31
2022-12-31T02:08:29.056Z,99697.47
2022-12-31T02:11:36.448Z,99703.75
2022-12-31T02:14:42.643Z,99695.84
2022-12-31T02:18:01.903Z,99689.84
2022-12-31T02:21:19.695Z,99690.94
2022-12-31T02:24:40.120Z,99685.66
2022-12-31T02:27:51.404Z,99675.72
2022-12-31T02:31:33.582Z,99669.47
2022-12-31T02:34:50.968Z,99669.47
2022-12-31T02:38:00.704Z,99666.59
2022-12-31T02:41:02.646Z,99666.72
2022-12-31T02:44:25.513Z,99680.50
2022-12-31T02:48:02.652Z,99670.69
2022-12-31T02:51:19.396Z,99672.19
2022-12-31T02:54:39.789Z,99675.16
2022-12-31T02:58:06.527Z,99661.03
2022-12-31T03:01:27.033Z,99661.28
2022-12-31T03:04:32.546Z,99652.31
2022-12-31T03:07:34.568Z,99647.53
2022-12-31T03:10:37.097Z,99640.31
2022-12-31T03:13:38.621Z,99634.59
2022-12-31T03:16:41.040Z,99633.50
2022-12-31T03:20:01.746Z,99632.69
2022-12-31T03:23:12.267Z,99627.09
2022-12-31T03:26:14.008Z,99614.81
2022-12-31T03:29:15.952Z,99619.34
2022-12-31T03:32:17.767Z,99618.38
2022-12-31T03:35:20.757Z,99633.06
2022-12-31T03:38:22.865Z,99642.88
2022-12-31T03:41:24.571Z,99622.72
2022-12-31T03:44:27.443Z,99607.34
2022-12-31T03:47:29.152Z,99607.34
2022-12-31T03:50:31.324Z,99601.06
2022-12-31T03:53:34.844Z,99595.78
2022-12-31T03:56:37.800Z,99585.94
2022-12-31T03:59:39.743Z,99588.28
2022-12-31T04:02:42.227Z,99580.34
2022-12-31T04:05:43.935Z,99578.75
2022-12-31T04:08:45.561Z,99565.66
2022-12-31T04:11:48.457Z,99565.25
2022-12-31T04:14:50.098Z,99558.84
2022-12-31T04:17:51.780Z,99557.63
2022-12-31T04:20:54.760Z,99553.47
2022-12-31T04:23:56.539Z,99542.25
2022-12-31T04:27:03.617Z,99551.50
2022-12-31T04:30:10.250Z,99544.94
2022-12-31T04:33:12.052Z,99545.31
2022-12-31T04:36:13.935Z,99542.16
2022-12-31T04:39:15.609Z,99537.78
2022-12-31T04:42:17.239Z,99553.53
2022-12-31T04:45:18.893Z,99556.63
2022-12-31T04:48:20.580Z,99584.69
2022-12-31T04:51:23.571Z,99608.47
2022-12-31T04:54:25.424Z,99629.09
2022-12-31T04:57:27.197Z,99672.56
2022-12-31T05:00:29.232Z,99662.44
2022-12-31T05:03:31.554Z,99657.81
2022-12-31T05:06:33.296Z,99644.25
2022-12-31T05:09:35.907Z,99621.47
2022-12-31T05:12:37.687Z,99633.19
2022-12-31T05:15:40.138Z,99626.31
2022-12-31T05:18:42.018Z,99618.25
2022-12-31T05:21:44.190Z,99612.69
2022-12-31T05:24:45.946Z,99618.00
2022-12-31T05:27:49.703Z,99649.25
2022-12-31T05:30:51.843Z,99648.19
2022-12-31T05:33:53.831Z,99668.03
2022-12-31T05:36:55.540Z,99666.38
2022-12-31T05:39:58.381Z,99672.53
2022-12-31T05:43:00.422Z,99686.41
2022-12-31T05:46:08.414Z,99703.44
2022-12-31T05:49:10.090Z,99705.06
2022-12-31T05:52:11.858Z,99690.88
2022-12-31T05:55:13.786Z,99700.41
2022-12-31T05:58:17.441Z,99679.56
2022-12-31T06:01:19.410Z,99684.88
2022-12-31T06:04:21.290Z,99677.41
2022-12-31T06:07:22.998Z,99668.47
2022-12-31T06:10:24.665Z,99668.19
2022-12-31T06:13:26.416Z,99659.88
2022-12-31T06:16:28.368Z,99667.81
2022-12-31T06:19:30.128Z,99661.97
2022-12-31T06:22:31.877Z,99668.09
2022-12-31T06:25:37.070Z,99667.25
2022-12-31T06:28:39.462Z,99668.25
2022-12-31T06:31:41.209Z,99671.91
2022-12-31T06:34:43.032Z,99685.16
2022-12-31T06:37:44.902Z,99679.81
2022-12-31T06:40:46.655Z,99688.13
2022-12-31T06:43:49.047Z,99688.66
2022-12-31T06:46:51.090Z,99688.66
2022-12-31T06:49:53.283Z,99692.22
2022-12-31T06:52:55.264Z,99672.59
2022-12-31T06:55:57.308Z,99677.78
2022-12-31T06:58:59.673Z,99670.97
2022-12-31T07:02:20.183Z,99673.13
2022-12-31T07:05:47.615Z,99668.09
2022-12-31T07:09:08.505Z,99656.78
2022-12-31T07:12:43.726Z,99661.53
2022-12-31T07:16:25.713Z,99658.63
2022-12-31T07:19:33.730Z,99682.00
2022-12-31T07:22:35.842Z,99652.16
2022-12-31T07:25:41.230Z,99613.22
2022-12-31T07:29:15.384Z,99717.47
2022-12-31T07:33:00.032Z,99671.25
2022-12-31T07:36:15.185Z,99655.66
2022-12-31T07:39:39.305Z,99694.75
2022-12-31T07:43:18.485Z,99715.53
2022-12-31T07:46:38.770Z,99749.81
2022-12-31T07:49:42.384Z,99740.91
2022-12-31T07:52:45.189Z,99739.56
2022-12-31T07:55:47.907Z,99742.31
2022-12-31T07:58:52.758Z,99748.50
2022-12-31T08:02:29.274Z,99749.28
2022-12-31T08:05:56.045Z,99747.41
2022-12-31T08:09:19.977Z,99762.94
2022-12-31T08:12:23.348Z,99755.84
2022-12-31T08:15:30.276Z,99767.31
2022-12-31T08:18:32.671Z,99779.56
2022-12-31T08:21:52.557Z,99773.69
2022-12-31T08:25:13.139Z,99782.56
2022-12-31T08:28:47.968Z,99788.00
2022-12-31T08:32:04.121Z,99775.63
2022-12-31T08:35:30.958Z,99773.31
2022-12-31T08:38:40.394Z,99782.19
2022-12-31T08:41:45.269Z,99783.00
2022-12-31T08:45:14.568Z,99781.50
2022-12-31T08:48:51.833Z,99798.41
2022-12-31T08:51:53.956Z,99796.50
2022-12-31T08:54:55.848Z,99796.19
2022-12-31T08:58:34.831Z,99799.31
2022-12-31T09:01:56.021Z,99788.81
2022-12-31T09:05:26.697Z,99774.38
2022-12-31T09:09:03.491Z,99773.28
2022-12-31T09:12:32.490Z,99766.97
2022-12-31T09:15:51.007Z,99776.34
2022-12-31T09:18:52.850Z,99776.47
2022-12-31T09:21:55.288Z,99781.84
2022-12-31T09:24:57.368Z,99785.22
2022-12-31T09:28:17.863Z,99775.03
2022-12-31T09:31:32.669Z,99788.78
2022-12-31T09:34:52.688Z,99787.03
2022-12-31T09:38:32.279Z,99785.09
2022-12-31T09:41:40.141Z,99784.50
2022-12-31T09:45:20.128Z,99780.94
2022-12-31T09:48:57.398Z,99777.22
2022-12-31T09:52:37.821Z,99776.41
2022-12-31T09:55:51.320Z,99761.69
2022-12-31T09:59:11.233Z,99746.53
2022-12-31T10:02:24.489Z,99750.66
2022-12-31T10:05:50.807Z,99727.94
2022-12-31T10:09:20.421Z,99734.31
2022-12-31T10:13:00.147Z,99726.59
2022-12-31T10:16:39.463Z,99713.97
2022-12-31T10:20:15.771Z,99707.16
2022-12-31T10:23:42.499Z,99701.97
2022-12-31T10:27:04.743Z,99683.53
2022-12-31T10:30:17.598Z,99652.03
2022-12-31T10:34:13.849Z,99666.81
2022-12-31T10:37:29.619Z,99642.91
2022-12-31T10:40:53.568Z,99656.25
2022-12-31T10:44:25.960Z,99643.25
2022-12-31T10:47:33.482Z,99639.66
2022-12-31T10:51:18.495Z,99624.03
2022-12-31T10:54:34.962Z,99619.78
2022-12-31T10:57:58.728Z,99625.34
2022-12-31T11:01:20.200Z,99623.53
2022-12-31T11:04:36.778Z,99641.09
2022-12-31T11:07:56.726Z,99635.09
2022-12-31T11:11:23.114Z,99666.81
2022-12-31T11:14:52.233Z,99657.50
2022-12-31T11:18:25.560Z,99680.16
2022-12-31T11:21:45.920Z,99682.56
2022-12-31T11:25:06.081Z,99704.34
2022-12-31T11:28:32.164Z,99727.44
2022-12-31T11:31:52.482Z,99741.44
2022-12-31T11:35:34.065Z,99775.72
2022-12-31T11:38:51.918Z,99724.69
2022-12-31T11:42:27.086Z,99741.44
2022-12-31T11:45:56.226Z,99727.59
2022-12-31T11:49:13.010Z,99714.91
2022-12-31T11:52:44.860Z,99707.22
2022-12-31T11:56:05.194Z,99716.38
2022-12-31T11:59:19.003Z,99724.00
2022-12-31T12:02:36.193Z,99726.97
2022-12-31T12:05:39.861Z,99745.00
2022-12-31T12:08:42.685Z,99764.13
2022-12-31T12:11:44.421Z,99773.59
2022-12-31T12:14:52.363Z,99770.66
2022-12-31T12:17:57.698Z,99756.53
2022-12-31T12:21:18.882Z,99763.19
2022-12-31T12:24:28.010Z,99771.28
2022-12-31T12:27:32.358Z,99765.94
2022-12-31T12:30:41.405Z,99770.31
2022-12-31T12:33:44.950Z,99761.56
2022-12-31T12:36:48.555Z,99757.00
2022-12-31T12:40:05.229Z,99744.50
2022-12-31T12:43:22.195Z,99732.66
2022-12-31T12:46:32.848Z,99720.28
2022-12-31T12:49:45.734Z,99721.91
2022-12-31T12:53:34.536Z,99713.28
2022-12-31T12:56:49.030Z,99706.63
2022-12-31T13:00:19.651Z,99704.66
2022-12-31T13:04:00.033Z,99725.19
2022-12-31T13:07:40.558Z,99740.94
2022-12-31T13:10:49.326Z,99748.91
2022-12-31T13:14:05.767Z,99745.53
2022-12-31T13:17:36.739Z,99741.13
2022-12-31T13:20:47.606Z,99750.06
2022-12-31T13:24:18.505Z,99736.72
2022-12-31T13:27:33.339Z,99745.66
2022-12-31T13:30:48.764Z,99734.09
2022-12-31T13:34:02.521Z,99744.34
2022-12-31T13:37:14.773Z,99729.41
2022-12-31T13:40:27.933Z,99744.34
2022-12-31T13:43:35.195Z,99741.75
2022-12-31T13:47:07.064Z,99746.97
2022-12-31T13:50:34.137Z,99729.09
2022-12-31T13:54:13.577Z,99722.56
2022-12-31T13:57:26.285Z,99732.34
2022-12-31T14:00:44.875Z,99725.16
2022-12-31T14:03:59.277Z,99720.78
2022-12-31T14:07:06.029Z,99729.22
2022-12-31T14:10:13.769Z,99731.69
2022-12-31T14:13:39.714Z,99741.44
2022-12-31T14:17:22.039Z,99732.63
2022-12-31T14:20:36.705Z,99720.91
2022-12-31T14:24:15.944Z,99724.81
2022-12-31T14:27:22.808Z,99744.16
2022-12-31T14:30:36.843Z,99737.66
2022-12-31T14:34:15.859Z,99752.31
2022-12-31T14:37:23.551Z,99752.50
2022-12-31T14:40:42.029Z,99766.00
2022-12-31T14:44:25.017Z,99758.19
2022-12-31T14:47:36.907Z,99761.78
2022-12-31T14:50:39.023Z,99776.91
2022-12-31T14:53:51.808Z,99771.06
2022-12-31T14:56:54.026Z,99770.22
2022-12-31T14:59:57.935Z,99794.47
2022-12-31T15:03:28.241Z,99815.44
2022-12-31T15:06:41.986Z,99804.38
2022-12-31T15:10:15.544Z,99817.72
2022-12-31T15:13:51.223Z,99803.91
2022-12-31T15:16:55.402Z,99805.84
2022-12-31T15:20:17.992Z,99806.16
2022-12-31T15:23:31.286Z,99790.91
2022-12-31T15:26:35.158Z,99786.50
2022-12-31T15:29:44.602Z,99794.78
2022-12-31T15:32:48.447Z,99798.38
2022-12-31T15:35:55.944Z,99821.16
2022-12-31T15:39:10.007Z,99817.91
2022-12-31T15:43:07.472Z,99797.22
2022-12-31T15:46:31.824Z,99809.25
2022-12-31T15:49:40.839Z,99794.47
2022-12-31T15:52:47.862Z,99789.75
2022-12-31T15:55:54.438Z,99789.91
2022-12-31T15:58:59.598Z,99795.78
2022-12-31T16:02:01.739Z,99786.66
2022-12-31T16:05:03.885Z,99791.69
2022-12-31T16:08:06.610Z,99784.38
2022-12-31T16:11:10.267Z,99783.09
2022-12-31T16:14:25.029Z,99793.31
2022-12-31T16:17:28.423Z,99800.47
2022-12-31T16:20:32.122Z,99793.78
2022-12-31T16:23:38.792Z,99800.28
2022-12-31T16:26:48.320Z,99795.19
2022-12-31T16:29:57.933Z,99802.66
2022-12-31T16:33:06.874Z,99813.88
2022-12-31T16:36:28.836Z,99803.88
2022-12-31T16:39:33.546Z,99816.06
2022-12-31T16:42:44.099Z,99796.53
2022-12-31T16:45:46.235Z,99830.19
2022-12-31T16:49:15.896Z,99815.72
2022-12-31T16:52:30.493Z,99811.19
2022-12-31T16:55:34.441Z,99813.97
2022-12-31T16:58:46.827Z,99807.97
2022-12-31T17:01:49.628Z,99820.31
2022-12-31T17:04:56.550Z,99808.94
2022-12-31T17:08:15.426Z,99803.25
2022-12-31T17:11:23.399Z,99794.13
2022-12-31T17:14:28.782Z,99798.88
2022-12-31T17:17:38.668Z,99808.78
2022-12-31T17:20:40.366Z,99811.03
2022-12-31T17:23:45.075Z,99798.38
2022-12-31T17:26:46.877Z,99794.28
2022-12-31T17:29:48.905Z,99790.88
2022-12-31T17:32:51.864Z,99802.41
2022-12-31T17:36:20.991Z,99788.72
2022-12-31T17:39:23.882Z,99807.38
2022-12-31T17:42:38.107Z,99805.06
2022-12-31T17:45:42.817Z,99804.94
2022-12-31T17:48:49.469Z,99810.13
2022-12-31T17:51:51.264Z,99803.91
2022-12-31T17:54:52.937Z,99813.19
2022-12-31T17:57:56.978Z,99797.25
2022-12-31T18:00:59.446Z,99797.09
2022-12-31T18:04:01.185Z,99786.44
2022-12-31T18:07:02.846Z,99790.94
2022-12-31T18:10:04.689Z,99786.91
2022-12-31T18:13:10.317Z,99792.06
2022-12-31T18:16:12.259Z,99785.09
2022-12-31T18:19:37.770Z,99777.75
2022-12-31T18:22:38.559Z,99792.88
2022-12-31T18:28:40.800Z,99772.13
2022-12-31T18:31:46.000Z,99762.88
2022-12-31T18:34:48.439Z,99749.78
2022-12-31T18:37:50.050Z,99764.41
2022-12-31T18:40:59.800Z,99746.53
2022-12-31T18:44:01.469Z,99771.34
2022-12-31T18:47:03.122Z,99764.66
2022-12-31T18:50:06.457Z,99759.06
2022-12-31T18:53:16.427Z,99758.44
2022-12-31T18:56:20.737Z,99765.78
2022-12-31T18:59:22.581Z,99756.84
2022-12-31T19:02:24.143Z,99759.56
2022-12-31T19:05:29.109Z,99775.00
2022-12-31T19:08:32.475Z,99772.44
2022-12-31T19:11:35.816Z,99773.75
2022-12-31T19:14:37.450Z,99752.50
2022-12-31T19:17:39.007Z,99758.22
2022-12-31T19:20:41.090Z,99762.41
2022-12-31T19:23:42.928Z,99761.72
2022-12-31T19:26:44.783Z,99765.59
2022-12-31T19:29:46.595Z,99783.00
2022-12-31T19:32:48.394Z,99781.13
2022-12-31T19:35:50.372Z,99782.13
2022-12-31T19:38:52.142Z,99773.50
2022-12-31T19:41:58.733Z,99782.19
2022-12-31T19:45:00.837Z,99787.50
2022-12-31T19:48:02.483Z,99780.63
2022-12-31T19:51:09.825Z,99785.03
2022-12-31T19:54:14.528Z,99781.50
2022-12-31T19:57:16.490Z,99796.25
2022-12-31T20:00:20.105Z,99767.38
2022-12-31T20:03:21.932Z,99780.84
2022-12-31T20:06:23.615Z,99788.28
2022-12-31T20:09:25.315Z,99779.59
2022-12-31T20:12:28.342Z,99784.44
2022-12-31T20:15:30.645Z,99793.50
2022-12-31T20:18:32.204Z,99788.81
2022-12-31T20:21:34.096Z,99795.28
2022-12-31T20:24:35.899Z,99807.13
2022-12-31T20:27:38.572Z,99783.06
2022-12-31T20:30:40.435Z,99795.28
2022-12-31T20:33:42.768Z,99796.13
2022-12-31T20:36:44.413Z,99800.69
2022-12-31T20:39:45.984Z,99805.81
2022-12-31T20:42:47.727Z,99808.88
2022-12-31T20:45:50.463Z,99808.13
2022-12-31T20:48:54.249Z,99815.44
2022-12-31T20:51:55.906Z,99817.88
2022-12-31T20:54:57.772Z,99826.25
2022-12-31T20:58:00.633Z,99824.31
2022-12-31T21:01:06.648Z,99827.38
2022-12-31T21:04:08.556Z,99831.00
2022-12-31T21:07:10.339Z,99824.19
2022-12-31T21:10:11.871Z,99840.13
2022-12-31T21:13:13.494Z,99851.69
2022-12-31T21:16:15.331Z,99847.19
2022-12-31T21:19:17.126Z,99838.63
2022-12-31T21:22:19.286Z,99841.22
2022-12-31T21:25:20.921Z,99826.91
2022-12-31T21:28:22.699Z,99831.53
2022-12-31T21:31:24.473Z,99839.88
2022-12-31T21:34:26.321Z,99829.25
2022-12-31T21:37:57.433Z,99830.75
2022-12-31T21:40:49.665Z,99822.47
2022-12-31T21:43:51.390Z,99837.94
2022-12-31T21:47:41.203Z,99851.81
2022-12-31T21:50:43.057Z,99853.09
2022-12-31T21:53:44.775Z,99868.91
2022-12-31T21:56:46.345Z,99851.53
2022-12-31T22:00:39.829Z,99860.81
2022-12-31T22:03:28.577Z,99854.47
2022-12-31T22:06:30.986Z,99846.81
2022-12-31T22:09:33.007Z,99856.41
2022-12-31T22:12:34.602Z,99872.38
2022-12-31T22:15:36.774Z,99863.28
2022-12-31T22:18:40.565Z,99871.56
2022-12-31T22:21:42.225Z,99860.50
2022-12-31T22:24:44.244Z,99848.94
2022-12-31T22:28:11.639Z,99890.06
2022-12-31T22:31:18.059Z,99908.13
2022-12-31T22:34:19.659Z,99898.00
2022-12-31T22:37:54.921Z,99891.38
2022-12-31T22:40:42.803Z,99909.59
2022-12-31T22:43:47.784Z,99906.53
2022-12-31T22:46:49.646Z,99921.00
2022-12-31T22:49:51.181Z,99911.41
2022-12-31T22:52:52.894Z,99930.28
2022-12-31T22:55:55.385Z,99928.28
2022-12-31T22:58:57.038Z,99926.16
2022-12-31T23:01:58.619Z,99934.13
2022-12-31T23:05:14.808Z,99928.78
2022-12-31T23:08:23.113Z,99935.63
2022-12-31T23:11:25.620Z,99926.19
2022-12-31T23:14:45.932Z,99941.75
2022-12-31T23:18:06.249Z,99944.47
2022-12-31T23:21:29.075Z,99943.66
2022-12-31T23:24:30.755Z,99953.41
2022-12-31T23:27:32.523Z,99945.66
2022-12-31T23:30:34.565Z,99945.84
2022-12-31T23:33:36.230Z,99953.16
2022-12-31T23:36:37.901Z,99946.56
2022-12-31T23:39:41.511Z,99944.31
2022-12-31T23:42:43.159Z,99947.09
2022-12-31T23:45:44.650Z,99939.09
2022-12-31T23:48:46.396Z,99937.16
2022-12-31T23:51:48.142Z,99955.06
2022-12-31T23:54:50.095Z,99940.75
2022-12-31T23:57:51.687Z,99940.09
